Time;durP1;ratioP1;P1;durP2;ratioP2;P2;SDS_P1;SDS_P2;PMS_P1;PMS_P2;Temp;Humidity;BMP_temperature;BMP_pressure;BME280_temperature;BME280_humidity;BME280_pressure;Samples;Min_cycle;Max_cycle;Signal;HPM_P1;HPM_P2
2022/01/15 00:00:11;;;;;;;27.97;6.60;;;3.60;99.90;;;;;;647647;222;26801;-74
2022/01/15 00:02:39;;;;;;;20.40;5.50;;;3.50;99.90;;;;;;647749;222;26544;-74
2022/01/15 00:05:06;;;;;;;23.17;6.83;;;3.50;99.90;;;;;;649573;220;26536;-75
2022/01/15 00:07:33;;;;;;;25.67;7.33;;;3.50;99.90;;;;;;648912;222;26491;-74
2022/01/15 00:10:01;;;;;;;16.90;5.97;;;3.60;99.90;;;;;;648034;221;26823;-74
2022/01/15 00:12:35;;;;;;;29.13;5.50;;;3.40;99.90;;;;;;647890;222;26553;-75
2022/01/15 00:14:55;;;;;;;18.57;5.57;;;3.60;99.90;;;;;;647193;222;26521;-74
2022/01/15 00:17:44;;;;;;;24.80;6.00;;;3.40;99.90;;;;;;647769;222;26505;-74
2022/01/15 00:19:51;;;;;;;21.57;6.13;;;3.50;99.90;;;;;;646038;222;26565;-74
2022/01/15 00:22:18;;;;;;;22.53;5.40;;;3.50;99.90;;;;;;647543;222;26606;-74
2022/01/15 00:24:45;;;;;;;24.07;6.20;;;3.30;99.90;;;;;;647411;222;26582;-74
2022/01/15 00:27:12;;;;;;;26.57;6.97;;;3.20;99.90;;;;;;647434;222;26870;-74
2022/01/15 00:29:40;;;;;;;23.73;6.03;;;3.10;99.90;;;;;;647497;222;26548;-74
2022/01/15 00:32:07;;;;;;;23.27;5.87;;;3.10;99.90;;;;;;647418;222;27036;-74
2022/01/15 00:34:34;;;;;;;17.47;6.67;;;3.20;99.90;;;;;;647543;222;26578;-74
2022/01/15 00:37:02;;;;;;;20.27;6.37;;;3.20;99.90;;;;;;637341;222;26887;-74
2022/01/15 00:39:29;;;;;;;23.90;7.33;;;3.30;99.90;;;;;;647346;222;26528;-74
2022/01/15 00:41:57;;;;;;;18.77;5.10;;;3.20;99.90;;;;;;647116;222;26611;-74
2022/01/15 00:44:24;;;;;;;20.40;5.43;;;3.20;99.90;;;;;;647113;222;26630;-74
2022/01/15 00:46:52;;;;;;;17.13;5.57;;;3.10;99.90;;;;;;647072;222;26560;-73
2022/01/15 00:49:19;;;;;;;22.23;5.80;;;3.10;99.90;;;;;;646979;222;26763;-73
2022/01/15 00:51:46;;;;;;;20.77;5.67;;;3.20;99.90;;;;;;647038;222;27320;-74
2022/01/15 00:54:14;;;;;;;24.83;5.93;;;3.20;99.90;;;;;;646937;222;26625;-74
2022/01/15 00:56:41;;;;;;;20.87;6.17;;;3.30;99.90;;;;;;646912;222;26885;-73
2022/01/15 00:59:09;;;;;;;21.43;6.40;;;3.40;99.90;;;;;;646893;222;26580;-74
2022/01/15 01:01:37;;;;;;;26.33;5.67;;;3.20;99.90;;;;;;647117;217;26606;-74
2022/01/15 01:04:05;;;;;;;26.07;5.20;;;3.00;99.90;;;;;;647151;217;26620;-73
2022/01/15 01:06:32;;;;;;;20.67;5.83;;;3.00;99.90;;;;;;647097;222;27257;-73
2022/01/15 01:08:59;;;;;;;20.53;6.27;;;3.10;99.90;;;;;;647046;222;26575;-73
2022/01/15 01:11:41;;;;;;;26.13;6.47;;;3.10;99.90;;;;;;647624;217;26808;-74
2022/01/15 01:22:56;;;;;;;17.77;4.90;;;2.90;99.90;;;;;;648651;222;26587;-74
2022/01/15 01:24:31;;;;;;;19.27;5.47;;;2.90;99.90;;;;;;639991;222;26579;-74
2022/01/15 01:27:02;;;;;;;23.97;6.03;;;3.00;99.90;;;;;;648261;222;26769;-74
2022/01/15 01:29:40;;;;;;;20.50;5.27;;;3.10;99.90;;;;;;647939;222;26478;-74
2022/01/15 01:32:01;;;;;;;22.70;5.20;;;3.10;99.90;;;;;;647165;222;27073;-73
2022/01/15 01:34:24;;;;;;;23.17;5.10;;;3.10;99.90;;;;;;647505;222;26803;-73
2022/01/15 01:37:33;;;;;;;20.23;5.97;;;2.90;99.90;;;;;;647833;217;26513;-74
2022/01/15 01:39:43;;;;;;;20.13;5.33;;;3.00;99.90;;;;;;645450;222;26745;-73
2022/01/15 01:42:10;;;;;;;31.03;6.37;;;2.90;99.90;;;;;;647419;222;26587;-74
2022/01/15 01:44:31;;;;;;;27.00;5.60;;;2.90;99.90;;;;;;647421;222;26479;-73
2022/01/15 01:47:05;;;;;;;16.83;5.20;;;2.80;99.90;;;;;;647979;222;26497;-74
2022/01/15 01:49:25;;;;;;;18.70;5.30;;;2.90;99.90;;;;;;647429;222;26755;-74
2022/01/15 01:51:52;;;;;;;18.47;5.07;;;2.90;99.90;;;;;;647780;222;26825;-74
2022/01/15 01:54:19;;;;;;;20.00;5.07;;;2.90;99.90;;;;;;647698;222;26532;-74
2022/01/15 01:56:48;;;;;;;19.33;5.57;;;2.80;99.90;;;;;;647682;222;26756;-74
2022/01/15 01:59:16;;;;;;;21.83;5.37;;;2.70;99.90;;;;;;647568;222;26555;-74
2022/01/15 02:01:42;;;;;;;27.33;4.63;;;2.70;99.90;;;;;;647599;218;26596;-74
2022/01/15 02:04:10;;;;;;;19.57;5.80;;;2.70;99.90;;;;;;647627;222;26756;-74
2022/01/15 02:06:38;;;;;;;15.73;5.20;;;2.70;99.90;;;;;;647645;222;26797;-74
2022/01/15 02:09:05;;;;;;;22.40;5.17;;;2.70;99.90;;;;;;647603;222;26529;-74
2022/01/15 02:11:32;;;;;;;17.37;5.23;;;2.70;99.90;;;;;;647673;222;26859;-74
2022/01/15 02:13:59;;;;;;;20.33;5.00;;;2.80;99.90;;;;;;647658;222;26537;-74
2022/01/15 02:16:26;;;;;;;22.97;5.27;;;2.80;99.90;;;;;;647660;222;26794;-74
2022/01/15 02:18:54;;;;;;;24.10;5.60;;;2.70;99.90;;;;;;647663;222;26532;-75
2022/01/15 02:23:57;;;;;;;18.10;5.20;;;2.80;99.90;;;;;;647662;222;26754;-74
2022/01/15 02:26:24;;;;;;;13.00;4.53;;;2.90;99.90;;;;;;648183;220;26491;-74
2022/01/15 02:28:54;;;;;;;17.20;5.10;;;2.80;99.90;;;;;;649174;221;26535;-74
2022/01/15 02:31:22;;;;;;;17.63;5.40;;;2.70;99.90;;;;;;648709;221;26511;-74
2022/01/15 02:33:49;;;;;;;27.07;5.27;;;2.70;99.90;;;;;;648635;221;26548;-74
2022/01/15 02:36:17;;;;;;;19.87;5.30;;;2.80;99.90;;;;;;648407;220;26514;-74
2022/01/15 02:38:44;;;;;;;26.83;5.40;;;2.60;99.90;;;;;;648237;222;26478;-74
2022/01/15 02:41:13;;;;;;;23.03;5.43;;;2.50;99.90;;;;;;648320;222;26509;-74
2022/01/15 02:43:40;;;;;;;22.60;5.30;;;2.50;99.90;;;;;;648311;222;26537;-74
2022/01/15 02:48:41;;;;;;;24.77;5.83;;;2.60;99.90;;;;;;647984;222;26537;-74
2022/01/15 02:51:08;;;;;;;19.77;5.57;;;2.50;99.90;;;;;;647968;222;26534;-74
2022/01/15 02:53:36;;;;;;;21.43;5.30;;;2.40;99.90;;;;;;647953;222;26478;-74
2022/01/15 02:56:04;;;;;;;19.00;5.97;;;2.40;99.90;;;;;;647997;222;26560;-74
2022/01/15 02:58:31;;;;;;;24.67;5.27;;;2.50;99.90;;;;;;647965;222;26485;-74
2022/01/15 03:00:58;;;;;;;20.57;5.17;;;2.70;99.90;;;;;;647961;217;26520;-74
2022/01/15 03:03:26;;;;;;;19.17;5.83;;;2.50;99.90;;;;;;647820;222;26569;-74
2022/01/15 03:05:54;;;;;;;15.50;5.17;;;2.50;99.90;;;;;;647692;222;26543;-74
2022/01/15 03:08:21;;;;;;;24.27;5.33;;;2.40;99.90;;;;;;647602;222;26908;-74
2022/01/15 03:10:48;;;;;;;24.27;5.37;;;2.40;99.90;;;;;;647157;222;26570;-74
2022/01/15 03:13:16;;;;;;;19.73;5.63;;;2.40;99.90;;;;;;647145;222;26790;-75
2022/01/15 03:15:43;;;;;;;22.17;5.93;;;2.40;99.90;;;;;;647030;222;26569;-74
2022/01/15 03:18:10;;;;;;;22.00;5.13;;;2.30;99.90;;;;;;647130;222;26585;-74
2022/01/15 03:20:38;;;;;;;20.30;5.60;;;2.30;99.90;;;;;;647062;217;26598;-74
2022/01/15 03:23:05;;;;;;;19.50;5.57;;;2.30;99.90;;;;;;647124;222;26818;-74
2022/01/15 03:25:32;;;;;;;18.13;5.57;;;2.40;99.90;;;;;;647255;222;26572;-74
2022/01/15 03:28:00;;;;;;;22.03;5.27;;;2.30;99.90;;;;;;647268;222;26801;-74
2022/01/15 03:30:28;;;;;;;24.97;7.47;;;2.20;99.90;;;;;;647192;222;26593;-74
2022/01/15 03:32:56;;;;;;;26.20;6.83;;;2.10;99.90;;;;;;647250;222;26609;-74
2022/01/15 03:35:23;;;;;;;21.80;5.50;;;2.10;99.90;;;;;;647236;222;26549;-74
2022/01/15 03:37:50;;;;;;;26.57;6.30;;;2.10;99.90;;;;;;647541;220;26568;-74
2022/01/15 03:40:17;;;;;;;18.23;5.50;;;2.10;99.90;;;;;;648804;221;26819;-74
2022/01/15 03:42:44;;;;;;;29.00;5.33;;;2.10;99.90;;;;;;648344;221;26534;-74
2022/01/15 03:45:12;;;;;;;26.47;6.73;;;2.10;99.90;;;;;;648133;221;26802;-74
2022/01/15 03:47:40;;;;;;;26.77;6.57;;;2.10;99.90;;;;;;648005;221;26562;-74
2022/01/15 03:50:08;;;;;;;27.30;5.93;;;2.20;99.90;;;;;;647843;222;26553;-75
2022/01/15 03:52:35;;;;;;;33.73;5.27;;;2.10;99.90;;;;;;643562;221;26818;-77
2022/01/15 03:55:03;;;;;;;26.77;5.87;;;2.20;99.90;;;;;;644453;221;26783;-74
2022/01/15 03:57:30;;;;;;;22.30;5.53;;;2.10;99.90;;;;;;642090;221;26535;-73
2022/01/15 03:59:57;;;;;;;27.00;6.60;;;2.20;99.90;;;;;;641640;221;26811;-74
2022/01/15 04:02:24;;;;;;;20.97;6.10;;;2.10;99.90;;;;;;641228;222;26534;-74
2022/01/15 04:04:52;;;;;;;35.13;6.40;;;2.00;99.90;;;;;;640836;219;26572;-73
2022/01/15 04:07:19;;;;;;;25.80;5.70;;;2.00;99.90;;;;;;645890;222;27609;-73
2022/01/15 04:09:47;;;;;;;23.87;5.77;;;2.10;99.90;;;;;;638471;221;26790;-73
2022/01/15 04:12:14;;;;;;;22.97;5.53;;;2.10;99.90;;;;;;644195;222;26798;-74
2022/01/15 04:14:41;;;;;;;33.37;6.43;;;2.10;99.90;;;;;;642514;222;26610;-73
2022/01/15 04:17:08;;;;;;;29.97;5.97;;;2.20;99.90;;;;;;645789;222;26853;-74
2022/01/15 04:19:36;;;;;;;24.47;6.00;;;2.50;99.90;;;;;;642010;222;26554;-73
2022/01/15 04:22:04;;;;;;;23.33;5.77;;;2.50;99.90;;;;;;644050;222;26634;-74
2022/01/15 04:24:31;;;;;;;27.87;6.77;;;2.50;99.90;;;;;;638181;224;26606;-73
2022/01/15 04:26:59;;;;;;;21.23;6.10;;;2.50;99.90;;;;;;645131;222;26583;-73
2022/01/15 04:29:26;;;;;;;26.53;6.70;;;2.40;99.90;;;;;;648196;221;26823;-74
2022/01/15 04:31:53;;;;;;;25.07;5.97;;;2.50;99.90;;;;;;636940;221;26577;-73
2022/01/15 04:34:22;;;;;;;24.03;6.77;;;2.40;99.90;;;;;;638905;224;27100;-73
2022/01/15 04:36:51;;;;;;;27.23;6.43;;;2.40;99.90;;;;;;638348;222;26840;-73
2022/01/15 04:39:16;;;;;;;33.83;7.23;;;2.30;99.90;;;;;;637414;222;26563;-73
2022/01/15 04:41:44;;;;;;;29.37;9.33;;;2.20;99.90;;;;;;637523;224;26791;-73
2022/01/15 04:44:12;;;;;;;33.37;7.60;;;2.40;99.90;;;;;;637548;222;26546;-74
2022/01/15 04:46:39;;;;;;;32.83;8.53;;;2.50;99.90;;;;;;646382;221;26491;-74
2022/01/15 04:49:07;;;;;;;29.47;7.50;;;2.50;99.90;;;;;;650011;221;26506;-74
2022/01/15 04:51:34;;;;;;;33.17;9.30;;;2.50;99.90;;;;;;642797;222;26562;-74
2022/01/15 04:54:01;;;;;;;31.80;8.33;;;2.60;99.90;;;;;;642182;223;26767;-73
2022/01/15 04:56:28;;;;;;;33.80;10.27;;;2.50;99.90;;;;;;646008;219;26547;-73
2022/01/15 04:58:55;;;;;;;31.50;9.50;;;2.60;99.90;;;;;;643157;221;27058;-73
2022/01/15 05:01:23;;;;;;;33.57;10.27;;;2.70;99.90;;;;;;641496;223;26616;-73
2022/01/15 05:03:50;;;;;;;32.07;9.60;;;2.60;99.90;;;;;;641120;223;26755;-74
2022/01/15 05:06:18;;;;;;;30.90;9.57;;;2.60;99.90;;;;;;644691;219;26555;-74
2022/01/15 05:08:46;;;;;;;25.33;9.60;;;2.40;99.90;;;;;;642631;222;26565;-74
2022/01/15 05:11:27;;;;;;;30.00;9.23;;;2.40;99.90;;;;;;638446;222;26602;-73
2022/01/15 05:13:42;;;;;;;33.53;9.20;;;2.50;99.90;;;;;;643459;222;26866;-73
2022/01/15 05:16:09;;;;;;;28.50;11.03;;;2.30;99.90;;;;;;638870;224;26560;-73
2022/01/15 05:18:36;;;;;;;28.90;9.27;;;2.30;99.90;;;;;;638410;224;26870;-74
2022/01/15 05:21:04;;;;;;;30.33;8.60;;;2.20;99.90;;;;;;640228;224;26629;-74
2022/01/15 05:23:31;;;;;;;46.40;11.63;;;2.20;99.90;;;;;;640188;223;26835;-73
2022/01/15 05:25:59;;;;;;;35.17;12.37;;;2.40;99.90;;;;;;637287;224;26563;-74
2022/01/15 05:28:27;;;;;;;35.13;12.03;;;2.30;99.90;;;;;;642954;222;26574;-73
2022/01/15 05:30:55;;;;;;;27.77;9.97;;;2.50;99.90;;;;;;639145;222;26593;-74
2022/01/15 05:33:22;;;;;;;37.73;10.70;;;2.50;99.90;;;;;;640454;224;26535;-73
2022/01/15 05:35:49;;;;;;;40.37;9.87;;;2.30;99.90;;;;;;639296;224;26586;-73
2022/01/15 05:38:16;;;;;;;31.07;9.83;;;2.20;99.90;;;;;;642468;222;26840;-73
2022/01/15 05:40:44;;;;;;;33.97;11.27;;;2.00;99.90;;;;;;639916;222;26639;-73
2022/01/15 05:43:11;;;;;;;30.27;9.50;;;2.00;99.90;;;;;;637181;224;27098;-73
2022/01/15 05:45:38;;;;;;;30.33;9.43;;;2.00;99.90;;;;;;642827;221;26585;-73
2022/01/15 05:48:06;;;;;;;33.87;8.50;;;2.30;99.90;;;;;;648570;221;26524;-74
2022/01/15 05:50:33;;;;;;;33.60;8.63;;;2.30;99.90;;;;;;640455;222;26628;-73
2022/01/15 05:53:01;;;;;;;34.70;9.33;;;2.40;99.90;;;;;;638268;221;26575;-73
2022/01/15 05:55:29;;;;;;;38.73;9.67;;;2.30;99.90;;;;;;639198;222;26564;-73
2022/01/15 05:57:57;;;;;;;30.90;8.97;;;2.60;99.90;;;;;;640358;221;26560;-73
2022/01/15 06:00:24;;;;;;;39.60;9.33;;;2.60;99.90;;;;;;640169;222;26829;-73
2022/01/15 06:02:51;;;;;;;29.07;8.63;;;2.60;99.90;;;;;;640967;219;26601;-74
2022/01/15 06:05:19;;;;;;;32.63;9.70;;;2.70;99.90;;;;;;645688;221;26848;-74
2022/01/15 06:07:46;;;;;;;33.17;9.37;;;2.70;99.90;;;;;;641302;224;26568;-74
2022/01/15 06:10:14;;;;;;;36.30;10.10;;;2.50;99.90;;;;;;641185;223;26867;-74
2022/01/15 06:12:43;;;;;;;25.40;8.93;;;2.50;99.90;;;;;;639468;218;26525;-74
2022/01/15 06:15:09;;;;;;;30.13;10.13;;;2.20;99.90;;;;;;646082;216;26515;-73
2022/01/15 06:17:37;;;;;;;26.83;9.03;;;2.40;99.90;;;;;;639316;224;26632;-73
2022/01/15 06:20:06;;;;;;;26.63;9.60;;;2.30;99.90;;;;;;638242;224;26613;-73
2022/01/15 06:22:33;;;;;;;31.57;10.23;;;2.30;99.90;;;;;;640059;222;26591;-74
2022/01/15 06:25:03;;;;;;;32.67;9.63;;;2.60;99.90;;;;;;638295;224;26598;-73
2022/01/15 06:27:29;;;;;;;30.70;9.60;;;2.50;99.90;;;;;;640588;223;26607;-73
2022/01/15 06:29:56;;;;;;;36.70;11.80;;;2.50;99.90;;;;;;645037;222;26810;-73
2022/01/15 06:32:23;;;;;;;36.93;13.30;;;2.60;99.90;;;;;;638832;222;26780;-74
2022/01/15 06:34:50;;;;;;;39.50;14.87;;;2.40;99.90;;;;;;638024;224;26885;-74
2022/01/15 06:37:18;;;;;;;40.37;15.13;;;2.60;99.90;;;;;;644376;221;26583;-74
2022/01/15 06:39:45;;;;;;;33.20;15.17;;;2.70;99.90;;;;;;648185;221;26783;-73
2022/01/15 06:42:12;;;;;;;48.80;16.17;;;2.60;99.90;;;;;;647010;222;26580;-74
2022/01/15 06:44:39;;;;;;;33.07;13.90;;;2.40;99.90;;;;;;647434;221;26781;-73
2022/01/15 06:47:06;;;;;;;42.23;16.03;;;2.10;99.90;;;;;;646880;221;26521;-74
2022/01/15 06:49:34;;;;;;;38.87;17.20;;;2.10;99.90;;;;;;645175;221;26912;-73
2022/01/15 06:52:01;;;;;;;45.97;15.23;;;2.30;99.90;;;;;;640781;221;26598;-74
2022/01/15 06:54:28;;;;;;;39.83;13.33;;;2.20;99.90;;;;;;640341;222;26553;-73
2022/01/15 06:56:56;;;;;;;38.30;15.73;;;2.10;99.90;;;;;;644541;222;26585;-74
2022/01/15 06:59:24;;;;;;;31.10;12.90;;;2.10;99.90;;;;;;636925;224;26631;-74
2022/01/15 07:01:52;;;;;;;40.73;15.20;;;2.10;99.90;;;;;;636802;224;26614;-73
2022/01/15 07:04:21;;;;;;;34.47;13.93;;;2.10;99.90;;;;;;645232;219;26592;-74
2022/01/15 07:06:49;;;;;;;37.13;15.40;;;2.10;99.90;;;;;;638867;222;26589;-74
2022/01/15 07:09:16;;;;;;;34.57;14.50;;;1.90;99.90;;;;;;643143;221;26573;-75
2022/01/15 07:11:44;;;;;;;35.90;15.17;;;1.90;99.90;;;;;;636942;221;26612;-74
2022/01/15 07:14:11;;;;;;;35.27;12.37;;;1.80;99.90;;;;;;638529;223;26550;-74
2022/01/15 07:16:38;;;;;;;31.40;10.97;;;1.90;99.90;;;;;;638303;222;26892;-78
2022/01/15 07:19:05;;;;;;;33.30;13.57;;;1.80;99.90;;;;;;642038;221;26579;-79
2022/01/15 07:21:32;;;;;;;32.00;11.20;;;1.70;99.90;;;;;;644260;221;26825;-79
2022/01/15 07:24:00;;;;;;;35.00;12.50;;;1.70;99.90;;;;;;637465;224;26740;-78
2022/01/15 07:26:27;;;;;;;31.43;11.50;;;1.80;99.90;;;;;;640328;224;27111;-79
2022/01/15 07:28:54;;;;;;;28.27;9.43;;;2.00;99.90;;;;;;637499;223;26729;-79
2022/01/15 07:31:21;;;;;;;34.90;9.57;;;2.00;99.90;;;;;;638898;221;26786;-80
2022/01/15 07:33:48;;;;;;;34.47;9.20;;;2.00;99.90;;;;;;640783;223;26564;-79
2022/01/15 07:36:16;;;;;;;25.87;8.93;;;1.90;99.90;;;;;;646055;222;26547;-78
2022/01/15 07:38:44;;;;;;;30.37;9.80;;;2.20;99.90;;;;;;637405;222;26585;-78
2022/01/15 07:41:13;;;;;;;31.17;10.47;;;2.40;99.90;;;;;;637255;219;26596;-79
2022/01/15 07:43:39;;;;;;;25.27;9.97;;;2.40;99.90;;;;;;642748;222;26583;-78
2022/01/15 07:46:06;;;;;;;24.83;11.00;;;2.30;99.90;;;;;;639993;222;26549;-78
2022/01/15 07:48:33;;;;;;;26.53;10.03;;;2.40;99.90;;;;;;638188;222;26788;-78
2022/01/15 07:51:00;;;;;;;27.77;9.97;;;2.50;99.90;;;;;;645218;222;26578;-79
2022/01/15 07:53:28;;;;;;;37.00;11.10;;;2.40;99.90;;;;;;640414;224;26860;-78
2022/01/15 07:55:55;;;;;;;29.73;9.43;;;2.40;99.90;;;;;;640246;224;26603;-79
2022/01/15 07:58:22;;;;;;;31.70;9.33;;;2.50;99.90;;;;;;645774;222;26810;-79
2022/01/15 08:00:50;;;;;;;24.10;10.23;;;2.30;99.90;;;;;;636903;221;26626;-78
2022/01/15 08:03:18;;;;;;;29.80;9.73;;;2.20;99.90;;;;;;636898;224;26548;-78
2022/01/15 08:05:46;;;;;;;23.30;8.10;;;2.10;99.90;;;;;;642824;222;26579;-78
2022/01/15 08:08:13;;;;;;;29.53;9.50;;;2.10;99.90;;;;;;641788;222;26576;-78
2022/01/15 08:10:40;;;;;;;26.00;8.27;;;2.10;99.90;;;;;;638413;222;26586;-78
2022/01/15 08:13:07;;;;;;;23.13;8.40;;;2.10;99.90;;;;;;644815;222;26764;-78
2022/01/15 08:15:35;;;;;;;19.97;8.20;;;2.30;99.90;;;;;;638546;224;26776;-79
2022/01/15 08:18:02;;;;;;;23.33;8.03;;;2.30;99.90;;;;;;639345;224;26810;-77
2022/01/15 08:20:30;;;;;;;29.37;8.87;;;2.30;99.90;;;;;;637437;224;26616;-78
2022/01/15 08:22:57;;;;;;;28.83;7.67;;;2.30;99.90;;;;;;638370;219;26563;-79
2022/01/15 08:25:27;;;;;;;27.47;9.20;;;2.50;99.90;;;;;;644721;221;27071;-78
2022/01/15 08:27:53;;;;;;;23.90;7.73;;;2.50;99.90;;;;;;648352;221;26515;-78
2022/01/15 08:30:20;;;;;;;36.23;8.97;;;2.60;99.90;;;;;;650397;221;26572;-78
2022/01/15 08:32:47;;;;;;;26.73;7.93;;;2.60;99.90;;;;;;648419;221;26833;-79
2022/01/15 08:35:15;;;;;;;20.53;7.33;;;2.50;99.90;;;;;;637596;224;26528;-78
2022/01/15 08:37:42;;;;;;;22.03;8.13;;;2.50;99.90;;;;;;637636;223;26834;-79
2022/01/15 08:40:10;;;;;;;26.97;8.10;;;2.60;99.90;;;;;;645186;222;26522;-78
2022/01/15 08:42:38;;;;;;;22.83;8.30;;;2.40;99.90;;;;;;647661;222;26570;-78
2022/01/15 08:45:07;;;;;;;23.20;8.53;;;2.40;99.90;;;;;;647445;218;26601;-79
2022/01/15 08:47:34;;;;;;;23.80;8.73;;;2.40;99.90;;;;;;643964;222;26854;-79
2022/01/15 08:50:02;;;;;;;24.90;8.23;;;3.10;99.90;;;;;;640695;223;26599;-79
2022/01/15 08:52:29;;;;;;;17.90;7.97;;;3.10;99.90;;;;;;640703;223;26565;-78
2022/01/15 08:54:57;;;;;;;27.03;9.27;;;3.10;99.90;;;;;;640783;219;26779;-79
2022/01/15 08:57:23;;;;;;;18.47;8.70;;;3.30;99.90;;;;;;639232;224;26801;-79
2022/01/15 08:59:51;;;;;;;22.13;8.67;;;3.40;99.90;;;;;;639409;221;26567;-79
2022/01/15 09:02:18;;;;;;;25.00;8.53;;;3.10;99.90;;;;;;640473;224;27249;-78
2022/01/15 09:04:45;;;;;;;17.07;7.90;;;3.10;99.90;;;;;;639864;224;26575;-79
2022/01/15 09:07:12;;;;;;;24.03;7.93;;;2.80;99.90;;;;;;636996;223;26578;-79
2022/01/15 09:09:40;;;;;;;23.30;8.27;;;2.50;99.90;;;;;;638817;224;26544;-78
2022/01/15 09:12:09;;;;;;;23.23;8.77;;;2.50;99.90;;;;;;645447;222;26580;-79
2022/01/15 09:14:36;;;;;;;23.87;8.83;;;2.80;99.90;;;;;;647165;222;26578;-78
2022/01/15 09:17:04;;;;;;;25.77;8.27;;;2.90;99.90;;;;;;644064;222;26558;-79
2022/01/15 09:19:31;;;;;;;17.77;8.27;;;2.90;99.90;;;;;;636880;224;26573;-78
2022/01/15 09:21:59;;;;;;;17.77;8.30;;;3.10;99.90;;;;;;636911;222;26620;-79
2022/01/15 09:24:26;;;;;;;17.77;7.83;;;3.50;99.90;;;;;;645377;222;26866;-77
2022/01/15 09:27:02;;;;;;;20.20;8.17;;;3.70;99.90;;;;;;640687;224;26589;-77
2022/01/15 09:32:06;;;;;;;29.37;8.40;;;3.40;99.90;;;;;;642556;217;26589;-78
2022/01/15 09:34:34;;;;;;;15.17;8.33;;;3.40;99.90;;;;;;640137;221;26588;-77
2022/01/15 09:37:02;;;;;;;22.20;7.93;;;3.20;99.90;;;;;;638192;223;26581;-78
2022/01/15 09:39:29;;;;;;;19.50;7.40;;;3.20;99.90;;;;;;640932;223;26801;-77
2022/01/15 09:41:56;;;;;;;22.00;8.23;;;3.10;99.90;;;;;;638431;224;26610;-78
2022/01/15 09:44:23;;;;;;;22.87;8.87;;;3.30;99.90;;;;;;640223;223;26814;-79
2022/01/15 09:46:51;;;;;;;22.97;8.63;;;3.30;99.90;;;;;;638160;224;26546;-79
2022/01/15 09:49:19;;;;;;;26.43;8.70;;;3.10;99.90;;;;;;640640;224;26541;-78
2022/01/15 09:51:46;;;;;;;16.07;8.00;;;3.10;99.90;;;;;;641033;224;26550;-78
2022/01/15 09:54:14;;;;;;;20.47;7.23;;;3.30;99.90;;;;;;640935;221;26576;-78
2022/01/15 09:56:41;;;;;;;18.13;7.63;;;3.60;99.90;;;;;;648935;221;26953;-79
2022/01/15 09:59:08;;;;;;;15.87;6.90;;;3.70;99.90;;;;;;643094;222;26568;-78
2022/01/15 10:01:35;;;;;;;21.17;7.53;;;3.60;99.90;;;;;;640746;221;26859;-78
2022/01/15 10:04:02;;;;;;;14.77;7.40;;;3.80;99.90;;;;;;638442;224;26557;-78
2022/01/15 10:06:30;;;;;;;15.63;7.73;;;3.40;99.90;;;;;;640813;224;26543;-78
2022/01/15 10:08:59;;;;;;;19.13;7.67;;;3.60;99.90;;;;;;644470;222;26586;-78
2022/01/15 10:11:37;;;;;;;16.13;7.27;;;3.60;99.90;;;;;;647259;222;26861;-78
2022/01/15 10:14:05;;;;;;;25.77;8.37;;;3.60;99.90;;;;;;643726;221;26563;-78
2022/01/15 10:16:32;;;;;;;21.47;8.63;;;4.30;99.90;;;;;;640885;221;26790;-78
2022/01/15 10:18:59;;;;;;;26.23;10.77;;;4.40;99.90;;;;;;641236;222;26826;-78
2022/01/15 10:21:29;;;;;;;24.70;11.33;;;4.20;99.90;;;;;;641381;222;26819;-78
2022/01/15 10:23:53;;;;;;;24.70;11.37;;;4.20;99.90;;;;;;642623;221;27218;-78
2022/01/15 10:26:21;;;;;;;29.50;13.00;;;4.30;99.90;;;;;;637919;222;26567;-78
2022/01/15 10:28:53;;;;;;;20.80;12.73;;;4.40;99.90;;;;;;638553;224;26838;-77
2022/01/15 10:31:21;;;;;;;23.37;12.83;;;4.30;99.90;;;;;;642341;221;26578;-78
2022/01/15 10:33:48;;;;;;;25.77;13.33;;;4.60;99.90;;;;;;639572;224;26551;-78
2022/01/15 10:36:19;;;;;;;26.30;13.07;;;3.80;99.90;;;;;;641545;221;26761;-77
2022/01/15 10:38:46;;;;;;;30.67;13.00;;;3.50;99.90;;;;;;643939;221;26477;-77
2022/01/15 10:41:26;;;;;;;24.47;11.83;;;3.40;99.90;;;;;;644310;221;26504;-78
2022/01/15 10:43:53;;;;;;;28.63;12.00;;;3.40;99.90;;;;;;639421;224;26487;-78
2022/01/15 10:46:20;;;;;;;25.43;11.73;;;3.60;99.90;;;;;;640172;219;26807;-78
2022/01/15 10:48:48;;;;;;;24.30;13.17;;;3.80;99.90;;;;;;639097;222;26571;-78
2022/01/15 10:51:16;;;;;;;26.87;11.50;;;4.00;99.90;;;;;;639821;224;26876;-78
2022/01/15 10:53:43;;;;;;;26.53;12.13;;;4.60;99.90;;;;;;639215;224;26772;-78
2022/01/15 10:56:10;;;;;;;23.57;12.67;;;4.50;99.90;;;;;;642701;219;27254;-78
2022/01/15 10:58:38;;;;;;;32.10;14.10;;;4.60;99.90;;;;;;640844;221;26565;-78
2022/01/15 11:01:05;;;;;;;25.53;12.73;;;4.20;99.90;;;;;;640551;222;26976;-78
2022/01/15 11:03:40;;;;;;;32.90;13.23;;;4.30;99.90;;;;;;644238;221;26482;-78
2022/01/15 11:06:06;;;;;;;27.20;12.47;;;4.30;99.90;;;;;;642065;220;26524;-78
2022/01/15 11:08:37;;;;;;;23.17;11.50;;;3.90;99.90;;;;;;644515;218;26883;-78
2022/01/15 11:11:05;;;;;;;25.90;11.97;;;3.90;99.90;;;;;;642089;221;26800;-79
2022/01/15 11:13:37;;;;;;;29.57;11.53;;;4.60;99.90;;;;;;643124;221;26549;-78
2022/01/15 11:16:05;;;;;;;26.53;11.17;;;5.20;99.90;;;;;;640850;221;26541;-78
2022/01/15 11:18:31;;;;;;;27.37;12.03;;;5.00;99.90;;;;;;642409;221;26531;-78
2022/01/15 11:20:59;;;;;;;38.20;13.03;;;4.70;99.90;;;;;;640070;222;26578;-78
2022/01/15 11:23:26;;;;;;;27.13;11.60;;;4.60;99.90;;;;;;639744;219;26892;-78
2022/01/15 11:25:53;;;;;;;28.70;11.80;;;4.60;99.90;;;;;;642042;221;26816;-78
2022/01/15 11:28:22;;;;;;;23.23;12.23;;;4.80;99.90;;;;;;644259;222;26798;-78
2022/01/15 11:30:49;;;;;;;29.87;14.17;;;4.80;99.90;;;;;;643356;221;26606;-77
2022/01/15 11:33:19;;;;;;;26.43;12.57;;;5.10;99.90;;;;;;643727;221;26584;-77
2022/01/15 11:35:48;;;;;;;34.43;13.87;;;5.40;99.90;;;;;;641767;221;26608;-77
2022/01/15 11:38:37;;;;;;;25.90;12.27;;;5.60;99.90;;;;;;638870;224;26576;-77
2022/01/15 11:41:06;;;;;;;28.17;12.20;;;5.10;99.90;;;;;;637185;224;26597;-77
2022/01/15 11:43:40;;;;;;;26.27;12.53;;;5.10;99.90;;;;;;638493;222;26557;-77
2022/01/15 11:46:23;;;;;;;27.67;11.47;;;4.80;99.90;;;;;;638688;222;26803;-77
2022/01/15 11:48:50;;;;;;;26.93;11.97;;;4.60;99.90;;;;;;641285;221;26585;-76
2022/01/15 11:51:26;;;;;;;29.23;11.73;;;4.60;99.90;;;;;;641222;222;26841;-77
2022/01/15 11:53:54;;;;;;;26.73;12.50;;;4.20;99.90;;;;;;639966;222;26564;-76
2022/01/15 11:56:21;;;;;;;34.77;13.93;;;3.90;99.90;;;;;;639052;222;26914;-76
2022/01/15 11:58:49;;;;;;;32.33;14.07;;;3.90;99.90;;;;;;646681;220;26566;-77
2022/01/15 12:01:28;;;;;;;29.10;13.87;;;4.30;99.90;;;;;;643572;220;26584;-76
2022/01/15 12:04:08;;;;;;;34.20;13.93;;;4.20;99.90;;;;;;641699;222;26568;-76
2022/01/15 12:06:35;;;;;;;26.40;12.87;;;4.20;99.90;;;;;;641647;221;26583;-76
2022/01/15 12:09:09;;;;;;;28.10;13.90;;;4.60;99.90;;;;;;639901;222;26560;-77
2022/01/15 12:11:36;;;;;;;30.27;14.27;;;4.60;99.90;;;;;;642520;222;26897;-78
2022/01/15 12:14:03;;;;;;;31.20;14.67;;;4.80;99.90;;;;;;643615;221;26509;-76
2022/01/15 12:16:36;;;;;;;27.87;14.07;;;4.60;99.90;;;;;;640341;221;26803;-77
2022/01/15 12:18:58;;;;;;;30.20;13.40;;;4.40;99.90;;;;;;640954;222;26567;-75
2022/01/15 12:21:39;;;;;;;32.90;14.10;;;4.40;99.90;;;;;;641853;222;26817;-78
2022/01/15 12:24:17;;;;;;;31.73;14.13;;;4.10;99.90;;;;;;643933;221;26724;-77
2022/01/15 12:27:02;;;;;;;32.47;15.90;;;4.50;99.90;;;;;;641076;222;26579;-78
2022/01/15 12:29:30;;;;;;;26.27;15.37;;;4.90;99.90;;;;;;641180;222;26591;-79
2022/01/15 12:31:57;;;;;;;31.17;15.20;;;5.20;99.90;;;;;;642636;222;26659;-77
2022/01/15 12:34:25;;;;;;;25.37;15.70;;;5.30;99.90;;;;;;638770;222;26811;-75
2022/01/15 12:36:53;;;;;;;30.03;12.73;;;5.40;99.90;;;;;;639192;221;26590;-80
2022/01/15 12:39:33;;;;;;;27.63;11.50;;;5.80;99.90;;;;;;642847;221;26861;-77
2022/01/15 12:42:01;;;;;;;29.47;13.23;;;5.70;99.90;;;;;;638044;222;26613;-81
2022/01/15 12:44:29;;;;;;;24.60;12.40;;;5.00;99.90;;;;;;639587;222;26566;-81
2022/01/15 12:46:58;;;;;;;29.53;12.13;;;5.00;99.90;;;;;;645736;221;26579;-81
2022/01/15 12:49:36;;;;;;;25.07;12.20;;;5.00;99.90;;;;;;642572;221;26561;-81
2022/01/15 12:52:12;;;;;;;26.67;12.47;;;5.30;99.90;;;;;;643827;221;26656;-81
2022/01/15 12:54:40;;;;;;;21.83;11.27;;;5.30;99.90;;;;;;639499;221;26575;-81
2022/01/15 12:57:08;;;;;;;23.20;11.77;;;5.10;99.90;;;;;;644629;216;26575;-82
2022/01/15 12:59:38;;;;;;;29.90;12.37;;;5.00;99.90;;;;;;641401;222;26567;-78
2022/01/15 13:02:04;;;;;;;29.13;14.20;;;5.20;99.90;;;;;;638486;223;26686;-78